createdAt,value
2022-09-17T00:01:08.181Z,2.20
2022-09-17T00:03:36.055Z,1.13
2022-09-17T00:06:05.616Z,1.27
2022-09-17T00:08:34.095Z,1.10
2022-09-17T00:11:08.766Z,1.40
2022-09-17T00:13:35.870Z,1.40
2022-09-17T00:16:02.809Z,1.30
2022-09-17T00:18:29.848Z,1.87
2022-09-17T00:20:56.683Z,1.20
2022-09-17T00:23:23.602Z,1.97
2022-09-17T00:25:50.521Z,1.13
2022-09-17T00:28:17.452Z,1.70
2022-09-17T00:30:45.910Z,2.10
2022-09-17T00:33:18.374Z,1.90
2022-09-17T00:35:45.343Z,1.30
2022-09-17T00:38:12.394Z,2.03
2022-09-17T00:40:39.339Z,2.10
2022-09-17T00:43:12.335Z,2.00
2022-09-17T00:45:40.116Z,2.13
2022-09-17T00:48:07.849Z,1.80
2022-09-17T00:50:44.790Z,2.50
2022-09-17T00:53:16.054Z,2.57
2022-09-17T00:56:16.499Z,1.33
2022-09-17T00:58:43.495Z,2.03
2022-09-17T01:01:10.387Z,1.50
2022-09-17T01:03:37.511Z,1.77
2022-09-17T01:06:34.617Z,2.00
2022-09-17T01:09:22.253Z,2.10
2022-09-17T01:12:18.319Z,1.70
2022-09-17T01:15:40.348Z,1.77
2022-09-17T01:18:45.931Z,2.23
2022-09-17T01:21:49.555Z,2.70
2022-09-17T01:24:53.082Z,4.13
2022-09-17T01:27:48.921Z,2.50
2022-09-17T01:30:44.093Z,1.93
2022-09-17T01:33:35.222Z,2.90
2022-09-17T01:36:31.859Z,2.43
2022-09-17T01:39:26.531Z,2.97
2022-09-17T01:42:42.043Z,3.83
2022-09-17T01:45:17.751Z,3.73
2022-09-17T01:47:54.360Z,4.00
2022-09-17T01:50:41.691Z,3.70
2022-09-17T01:53:11.258Z,3.70
2022-09-17T01:55:44.129Z,3.00
2022-09-17T01:58:20.899Z,3.23
2022-09-17T02:00:53.355Z,2.43
2022-09-17T02:03:31.967Z,3.30
2022-09-17T02:06:11.847Z,3.07
2022-09-17T02:09:16.908Z,3.27
2022-09-17T02:11:49.828Z,3.70
2022-09-17T02:14:21.843Z,3.20
2022-09-17T02:16:53.969Z,3.63
2022-09-17T02:19:33.238Z,4.60
2022-09-17T02:22:30.116Z,3.70
2022-09-17T02:25:06.688Z,3.37
2022-09-17T02:27:59.730Z,3.23
2022-09-17T02:30:26.884Z,3.13
2022-09-17T02:32:55.155Z,3.77
2022-09-17T02:35:22.527Z,2.80
2022-09-17T02:37:50.064Z,3.57
2022-09-17T02:40:18.818Z,3.30
2022-09-17T02:43:33.759Z,3.53
2022-09-17T02:46:36.250Z,3.10
2022-09-17T02:49:29.171Z,2.97
2022-09-17T02:52:22.571Z,3.00
2022-09-17T02:55:04.840Z,3.40
2022-09-17T02:57:46.862Z,3.40
2022-09-17T03:00:20.120Z,4.20
2022-09-17T03:03:10.601Z,3.50
2022-09-17T03:05:39.247Z,3.50
2022-09-17T03:08:12.630Z,3.33
2022-09-17T03:10:40.240Z,3.30
2022-09-17T03:13:07.503Z,3.70
2022-09-17T03:15:34.406Z,3.57
2022-09-17T03:18:01.895Z,2.97
2022-09-17T03:20:28.789Z,2.87
2022-09-17T03:22:55.649Z,2.70
2022-09-17T03:25:22.836Z,3.87
2022-09-17T03:27:49.773Z,3.47
2022-09-17T03:30:16.719Z,3.57
2022-09-17T03:32:43.716Z,2.60
2022-09-17T03:35:10.562Z,3.60
2022-09-17T03:37:37.467Z,2.77
2022-09-17T03:40:05.404Z,2.83
2022-09-17T03:42:32.391Z,3.70
2022-09-17T03:44:59.218Z,3.57
2022-09-17T03:47:26.052Z,3.60
2022-09-17T03:49:52.849Z,3.53
2022-09-17T03:52:19.704Z,3.07
2022-09-17T03:54:46.570Z,2.60
2022-09-17T03:57:13.488Z,2.97
2022-09-17T03:59:40.568Z,2.70
2022-09-17T04:02:07.646Z,2.80
2022-09-17T04:04:34.604Z,3.10
2022-09-17T04:07:01.579Z,3.10
2022-09-17T04:09:29.965Z,3.33
2022-09-17T04:11:57.147Z,4.07
2022-09-17T04:14:24.163Z,3.80
2022-09-17T04:16:51.136Z,2.70
2022-09-17T04:19:18.030Z,2.40
2022-09-17T04:21:45.034Z,3.30
2022-09-17T04:24:11.980Z,2.13
2022-09-17T04:26:38.864Z,2.97
2022-09-17T04:29:05.803Z,2.37
2022-09-17T04:31:32.749Z,2.07
2022-09-17T04:33:59.745Z,2.83
2022-09-17T04:36:26.808Z,3.60
2022-09-17T04:38:53.746Z,2.40
2022-09-17T04:41:20.800Z,2.97
2022-09-17T04:43:47.891Z,2.83
2022-09-17T04:46:16.855Z,2.83
2022-09-17T04:48:44.051Z,2.93
2022-09-17T04:51:11.168Z,2.40
2022-09-17T04:53:38.576Z,1.70
2022-09-17T04:56:05.831Z,2.90
2022-09-17T04:58:33.126Z,2.47
2022-09-17T05:01:00.183Z,2.40
2022-09-17T05:03:27.295Z,2.80
2022-09-17T05:05:54.284Z,2.97
2022-09-17T05:08:23.076Z,3.17
2022-09-17T05:10:51.635Z,2.70
2022-09-17T05:13:19.068Z,1.77
2022-09-17T05:15:46.165Z,2.30
2022-09-17T05:18:13.419Z,2.87
2022-09-17T05:20:40.407Z,2.23
2022-09-17T05:23:07.511Z,2.00
2022-09-17T05:25:34.588Z,2.40
2022-09-17T05:28:01.884Z,2.87
2022-09-17T05:30:28.953Z,2.47
2022-09-17T05:33:07.140Z,1.60
2022-09-17T05:35:36.632Z,2.27
2022-09-17T05:38:06.129Z,2.60
2022-09-17T05:40:33.206Z,2.20
2022-09-17T05:43:01.503Z,3.90
2022-09-17T05:45:29.349Z,2.50
2022-09-17T05:48:01.110Z,3.20
2022-09-17T05:50:29.163Z,2.50
2022-09-17T05:52:57.074Z,2.43
2022-09-17T05:55:24.521Z,1.77
2022-09-17T05:57:51.522Z,2.00
2022-09-17T06:00:18.982Z,1.47
2022-09-17T06:02:45.967Z,2.70
2022-09-17T06:05:12.982Z,2.60
2022-09-17T06:07:40.093Z,1.90
2022-09-17T06:10:08.546Z,1.90
2022-09-17T06:12:38.483Z,1.83
2022-09-17T06:15:06.776Z,1.90
2022-09-17T06:17:35.485Z,1.53
2022-09-17T06:20:04.502Z,2.13
2022-09-17T06:22:31.373Z,1.50
2022-09-17T06:24:59.790Z,1.80
2022-09-17T06:27:31.994Z,1.40
2022-09-17T06:29:58.863Z,1.43
2022-09-17T06:32:25.950Z,1.37
2022-09-17T06:34:52.879Z,1.27
2022-09-17T06:37:19.744Z,1.00
2022-09-17T06:39:46.559Z,1.80
2022-09-17T06:42:13.454Z,1.30
2022-09-17T06:44:41.088Z,1.57
2022-09-17T06:47:08.079Z,1.10
2022-09-17T06:49:34.957Z,1.43
2022-09-17T06:52:02.197Z,1.03
2022-09-17T06:54:29.082Z,1.40
2022-09-17T06:56:55.898Z,0.90
2022-09-17T06:59:22.956Z,2.63
2022-09-17T07:01:49.948Z,1.00
2022-09-17T07:04:18.924Z,1.43
2022-09-17T07:06:46.287Z,1.33
2022-09-17T07:09:13.173Z,1.73
2022-09-17T07:11:40.185Z,1.93
2022-09-17T07:14:07.393Z,1.70
2022-09-17T07:16:36.034Z,1.30
2022-09-17T07:19:04.033Z,1.50
2022-09-17T07:21:31.260Z,1.53
2022-09-17T07:23:58.739Z,1.37
2022-09-17T07:26:25.974Z,0.70
2022-09-17T07:28:52.866Z,0.97
2022-09-17T07:31:20.078Z,1.47
2022-09-17T07:33:47.038Z,1.60
2022-09-17T07:36:18.140Z,1.50
2022-09-17T07:38:45.273Z,1.30
2022-09-17T07:41:14.303Z,1.13
2022-09-17T07:43:42.633Z,1.67
2022-09-17T07:46:18.391Z,1.20
2022-09-17T07:48:46.606Z,1.60
2022-09-17T07:51:22.551Z,1.10
2022-09-17T07:53:53.413Z,1.13
2022-09-17T07:56:20.846Z,0.87
2022-09-17T07:58:47.990Z,1.07
2022-09-17T08:01:19.171Z,1.87
2022-09-17T08:03:53.978Z,1.63
2022-09-17T08:06:25.977Z,1.20
2022-09-17T08:08:52.836Z,0.90
2022-09-17T08:14:14.075Z,1.37
2022-09-17T08:16:41.725Z,1.33
2022-09-17T08:19:10.962Z,1.13
2022-09-17T08:21:38.302Z,1.07
2022-09-17T08:24:05.432Z,1.53
2022-09-17T08:26:32.787Z,1.47
2022-09-17T08:29:00.150Z,0.90
2022-09-17T08:31:37.366Z,1.47
2022-09-17T08:34:09.687Z,1.53
2022-09-17T08:36:37.098Z,1.10
2022-09-17T08:39:04.321Z,1.03
2022-09-17T08:42:27.340Z,1.13
2022-09-17T08:45:00.469Z,1.13
2022-09-17T08:47:42.853Z,1.57
2022-09-17T08:50:32.777Z,1.10
2022-09-17T08:53:40.348Z,1.33
2022-09-17T08:56:13.472Z,1.13
2022-09-17T08:59:21.981Z,1.10
2022-09-17T09:02:04.234Z,0.83
2022-09-17T09:05:02.276Z,1.03
2022-09-17T09:07:43.657Z,0.63
2022-09-17T09:10:23.669Z,1.47
2022-09-17T09:12:53.154Z,1.07
2022-09-17T09:16:01.188Z,0.83
2022-09-17T09:18:31.182Z,0.87
2022-09-17T09:21:33.558Z,0.70
2022-09-17T09:24:15.296Z,1.40
2022-09-17T09:27:12.668Z,1.20
2022-09-17T09:30:07.649Z,0.83
2022-09-17T09:33:06.307Z,0.80
2022-09-17T09:35:39.495Z,1.27
2022-09-17T09:38:33.054Z,1.10
2022-09-17T09:41:37.182Z,1.30
2022-09-17T09:44:09.608Z,1.13
2022-09-17T09:47:19.460Z,0.97
2022-09-17T09:50:19.114Z,0.80
2022-09-17T09:53:18.789Z,0.70
2022-09-17T09:56:09.008Z,0.80
2022-09-17T09:58:40.542Z,0.93
2022-09-17T10:01:26.057Z,1.00
2022-09-17T10:03:56.272Z,0.60
2022-09-17T10:06:23.369Z,0.83
2022-09-17T10:09:14.365Z,0.70
2022-09-17T10:11:42.757Z,0.83
2022-09-17T10:14:37.508Z,0.90
2022-09-17T10:17:26.404Z,0.97
2022-09-17T10:20:26.487Z,0.87
2022-09-17T10:22:53.718Z,0.90
2022-09-17T10:25:32.816Z,0.97
2022-09-17T10:28:04.232Z,1.03
2022-09-17T10:30:31.721Z,0.80
2022-09-17T10:33:24.979Z,0.60
2022-09-17T10:36:00.101Z,0.70
2022-09-17T10:38:32.609Z,0.63
2022-09-17T10:41:22.287Z,0.50
2022-09-17T10:43:50.884Z,0.90
2022-09-17T10:46:27.884Z,0.53
2022-09-17T10:49:12.159Z,1.37
2022-09-17T10:51:42.204Z,0.80
2022-09-17T10:54:24.068Z,0.80
2022-09-17T10:56:57.374Z,0.63
2022-09-17T11:00:11.531Z,0.50
2022-09-17T11:03:29.496Z,0.60
2022-09-17T11:06:43.113Z,0.50
2022-09-17T11:09:55.121Z,0.93
2022-09-17T11:13:00.186Z,0.50
2022-09-17T11:16:11.927Z,0.60
2022-09-17T11:19:02.380Z,0.50
2022-09-17T11:21:46.436Z,0.60
2022-09-17T11:24:32.147Z,0.53
2022-09-17T11:27:27.071Z,0.60
2022-09-17T11:30:31.269Z,0.60
2022-09-17T11:36:44.152Z,0.60
2022-09-17T11:39:21.864Z,0.50
2022-09-17T11:41:53.725Z,0.50
2022-09-17T11:45:12.222Z,0.70
2022-09-17T11:47:58.435Z,0.60
2022-09-17T11:50:34.181Z,0.50
2022-09-17T11:53:20.965Z,0.57
2022-09-17T11:56:13.296Z,0.63
2022-09-17T11:59:08.869Z,0.70
2022-09-17T12:01:53.323Z,0.60
2022-09-17T12:04:31.049Z,0.60
2022-09-17T12:07:22.093Z,0.50
2022-09-17T12:09:56.354Z,0.60
2022-09-17T12:12:48.386Z,0.60
2022-09-17T12:15:20.359Z,0.77
2022-09-17T12:18:31.720Z,0.87
2022-09-17T12:21:03.081Z,0.80
2022-09-17T12:23:40.001Z,0.80
2022-09-17T12:26:42.544Z,0.57
2022-09-17T12:29:35.964Z,0.60
2022-09-17T12:33:10.668Z,0.60
2022-09-17T12:36:48.642Z,0.60
2022-09-17T12:40:22.905Z,0.50
2022-09-17T12:43:10.090Z,0.87
2022-09-17T12:46:34.174Z,0.50
2022-09-17T13:09:45.537Z,0.60
2022-09-17T13:12:28.160Z,0.70
2022-09-17T13:15:03.526Z,1.30
2022-09-17T13:18:20.001Z,1.07
2022-09-17T13:21:25.993Z,0.77
2022-09-17T13:23:55.297Z,1.10
2022-09-17T13:26:34.937Z,0.90
2022-09-17T13:29:02.020Z,1.00
2022-09-17T13:31:55.529Z,0.90
2022-09-17T13:34:31.772Z,1.07
2022-09-17T13:37:01.143Z,1.03
2022-09-17T13:39:40.646Z,1.47
2022-09-17T13:42:10.697Z,1.10
2022-09-17T13:44:45.937Z,0.70
2022-09-17T13:47:24.271Z,1.03
2022-09-17T13:49:55.423Z,0.77
2022-09-17T13:52:49.990Z,0.83
2022-09-17T13:55:37.156Z,0.83
2022-09-17T13:58:31.565Z,0.87
2022-09-17T14:01:14.800Z,0.50
2022-09-17T14:03:54.162Z,1.10
2022-09-17T14:06:48.440Z,0.90
2022-09-17T14:09:58.108Z,0.70
2022-09-17T14:12:51.632Z,0.60
2022-09-17T14:15:56.658Z,0.50
2022-09-17T14:18:58.170Z,0.60
2022-09-17T14:21:31.937Z,0.60
2022-09-17T14:24:02.341Z,0.50
2022-09-17T14:26:52.451Z,0.60
2022-09-17T14:29:54.021Z,0.80
2022-09-17T14:32:42.889Z,1.00
2022-09-17T14:35:46.157Z,0.67
2022-09-17T14:38:47.836Z,1.13
2022-09-17T14:41:30.921Z,0.60
2022-09-17T14:44:09.533Z,0.90
2022-09-17T14:46:51.896Z,0.60
2022-09-17T14:49:30.939Z,0.50
2022-09-17T14:51:58.994Z,1.10
2022-09-17T14:54:35.128Z,0.80
2022-09-17T14:57:26.947Z,0.77
2022-09-17T14:59:58.324Z,1.10
2022-09-17T15:02:59.759Z,1.10
2022-09-17T15:05:33.828Z,0.70
2022-09-17T15:08:15.695Z,0.67
2022-09-17T15:11:10.916Z,0.60
2022-09-17T15:13:45.545Z,0.73
2022-09-17T15:16:39.245Z,0.70
2022-09-17T15:19:06.241Z,0.70
2022-09-17T15:21:55.259Z,0.40
2022-09-17T15:24:50.657Z,0.50
2022-09-17T15:27:23.771Z,0.70
2022-09-17T15:30:05.428Z,0.50
2022-09-17T15:32:33.988Z,0.90
2022-09-17T15:35:33.981Z,0.87
2022-09-17T15:38:22.211Z,0.80
2022-09-17T15:40:49.702Z,1.23
2022-09-17T15:43:34.803Z,1.00
2022-09-17T15:46:32.199Z,0.90
2022-09-17T15:49:02.768Z,0.90
2022-09-17T15:51:32.362Z,0.70
2022-09-17T15:54:06.715Z,1.17
2022-09-17T15:56:39.246Z,1.00
2022-09-17T15:59:33.678Z,0.80
2022-09-17T16:02:02.431Z,1.00
2022-09-17T16:04:34.685Z,0.80
2022-09-17T16:07:29.483Z,1.00
2022-09-17T16:09:59.313Z,0.57
2022-09-17T16:12:29.080Z,0.90
2022-09-17T16:14:58.334Z,0.63
2022-09-17T16:17:54.801Z,0.80
2022-09-17T16:20:24.559Z,1.37
2022-09-17T16:22:53.108Z,0.63
2022-09-17T16:25:24.450Z,0.90
2022-09-17T16:28:10.115Z,0.70
2022-09-17T16:30:37.611Z,0.90
2022-09-17T16:33:06.901Z,1.20
2022-09-17T16:35:34.007Z,0.80
2022-09-17T16:38:00.994Z,1.20
2022-09-17T16:40:28.366Z,1.00
2022-09-17T16:42:55.751Z,0.90
2022-09-17T16:45:28.096Z,1.40
2022-09-17T16:47:56.155Z,0.73
2022-09-17T16:50:23.211Z,0.77
2022-09-17T16:52:50.236Z,1.20
2022-09-17T16:55:18.029Z,1.33
2022-09-17T16:57:45.678Z,1.00
2022-09-17T17:00:17.284Z,0.83
2022-09-17T17:02:45.059Z,1.03
2022-09-17T17:05:12.111Z,1.20
2022-09-17T17:07:39.516Z,1.40
2022-09-17T17:10:09.161Z,0.80
2022-09-17T17:12:37.272Z,1.00
2022-09-17T17:15:06.347Z,1.00
2022-09-17T17:17:35.847Z,1.33
2022-09-17T17:20:08.558Z,1.57
2022-09-17T17:22:37.047Z,0.70
2022-09-17T17:25:06.044Z,1.23
2022-09-17T17:27:33.627Z,0.73
2022-09-17T17:30:04.734Z,1.07
2022-09-17T17:32:31.967Z,0.80
2022-09-17T17:34:59.048Z,1.20
2022-09-17T17:37:27.136Z,0.70
2022-09-17T17:39:54.541Z,0.90
2022-09-17T17:42:22.229Z,1.33
2022-09-17T17:44:49.848Z,0.80
2022-09-17T17:47:17.198Z,0.83
2022-09-17T17:49:44.903Z,1.20
2022-09-17T17:52:11.857Z,1.03
2022-09-17T17:54:39.076Z,0.70
2022-09-17T17:57:06.199Z,0.70
2022-09-17T17:59:33.419Z,0.90
2022-09-17T18:02:02.221Z,0.80
2022-09-17T18:04:29.481Z,1.00
2022-09-17T18:06:56.667Z,0.87
2022-09-17T18:09:23.982Z,1.10
2022-09-17T18:11:51.129Z,1.10
2022-09-17T18:14:18.160Z,1.00
2022-09-17T18:16:45.144Z,1.10
2022-09-17T18:19:12.317Z,1.83
2022-09-17T18:21:39.292Z,1.20
2022-09-17T18:24:06.211Z,1.07
2022-09-17T18:26:34.333Z,1.03
2022-09-17T18:29:05.657Z,1.50
2022-09-17T18:31:35.542Z,1.60
2022-09-17T18:34:05.133Z,2.40
2022-09-17T18:36:34.004Z,1.23
2022-09-17T18:39:32.931Z,2.30
2022-09-17T18:41:50.113Z,2.07
2022-09-17T18:44:19.103Z,3.03
2022-09-17T18:46:48.076Z,2.20
2022-09-17T18:49:15.971Z,1.60
2022-09-17T18:51:43.477Z,1.33
2022-09-17T18:54:11.077Z,1.40
2022-09-17T18:56:37.947Z,1.10
2022-09-17T18:59:08.252Z,1.13
2022-09-17T19:01:36.078Z,0.97
2022-09-17T19:04:03.855Z,1.50
2022-09-17T19:06:32.334Z,1.50
2022-09-17T19:09:04.328Z,1.57
2022-09-17T19:11:31.346Z,1.17
2022-09-17T19:13:58.328Z,1.37
2022-09-17T19:16:25.545Z,1.40
2022-09-17T19:18:52.718Z,1.27
2022-09-17T19:21:21.836Z,1.73
2022-09-17T19:23:51.207Z,1.40
2022-09-17T19:26:21.455Z,1.40
2022-09-17T19:28:51.609Z,1.10
2022-09-17T19:31:18.909Z,1.20
2022-09-17T19:33:47.268Z,1.27
2022-09-17T19:36:17.256Z,1.40
2022-09-17T19:38:44.647Z,1.20
2022-09-17T19:41:13.418Z,1.43
2022-09-17T19:43:40.556Z,1.20
2022-09-17T19:46:16.635Z,1.37
2022-09-17T19:48:55.211Z,1.80
2022-09-17T19:51:24.181Z,1.80
2022-09-17T19:53:51.895Z,2.10
2022-09-17T19:56:24.267Z,1.50
2022-09-17T19:58:51.909Z,1.50
2022-09-17T20:01:20.490Z,1.80
2022-09-17T20:03:48.875Z,1.23
2022-09-17T20:06:18.111Z,2.00
2022-09-17T20:08:47.217Z,1.10
2022-09-17T20:11:15.152Z,1.47
2022-09-17T20:13:42.215Z,1.63
2022-09-17T20:16:18.314Z,1.37
2022-09-17T20:18:48.872Z,1.47
2022-09-17T20:21:25.146Z,2.07
2022-09-17T20:23:52.592Z,1.47
2022-09-17T20:26:19.589Z,1.83
2022-09-17T20:28:48.084Z,2.37
2022-09-17T20:31:18.902Z,2.10
2022-09-17T20:33:47.272Z,1.83
2022-09-17T20:36:22.239Z,2.00
2022-09-17T20:41:40.625Z,1.80
2022-09-17T20:44:07.900Z,1.60
2022-09-17T20:46:35.154Z,1.23
2022-09-17T20:49:02.957Z,1.50
2022-09-17T20:51:32.791Z,1.17
2022-09-17T20:54:01.837Z,1.37
2022-09-17T20:56:33.373Z,1.23
2022-09-17T20:59:15.538Z,2.07
2022-09-17T21:01:45.165Z,1.80
2022-09-17T21:04:19.938Z,2.00
2022-09-17T21:06:51.096Z,0.87
2022-09-17T21:09:18.033Z,1.30
2022-09-17T21:12:00.023Z,1.70
2022-09-17T21:14:27.555Z,1.40
2022-09-17T21:16:55.146Z,1.50
2022-09-17T21:19:24.304Z,1.60
2022-09-17T21:21:54.564Z,1.90
2022-09-17T21:24:21.451Z,2.00
2022-09-17T21:26:49.691Z,1.60
2022-09-17T21:29:17.570Z,2.50
2022-09-17T21:31:45.007Z,1.63
2022-09-17T21:34:13.200Z,1.60
2022-09-17T21:36:41.867Z,1.60
2022-09-17T21:39:14.996Z,1.40
2022-09-17T21:41:46.098Z,1.67
2022-09-17T21:44:13.715Z,1.70
2022-09-17T21:46:42.798Z,1.13
2022-09-17T21:49:10.614Z,1.80
2022-09-17T21:51:42.686Z,2.57
2022-09-17T21:54:12.267Z,1.73
2022-09-17T21:56:39.696Z,1.90
2022-09-17T21:59:09.534Z,1.97
2022-09-17T22:01:42.510Z,1.70
2022-09-17T22:04:13.172Z,2.20
2022-09-17T22:06:41.501Z,2.37
2022-09-17T22:09:13.285Z,2.60
2022-09-17T22:11:40.415Z,1.40
2022-09-17T22:14:19.711Z,1.67
2022-09-17T22:16:49.517Z,1.60
2022-09-17T22:19:18.866Z,1.47
2022-09-17T22:21:54.578Z,1.73
2022-09-17T22:24:22.935Z,1.63
2022-09-17T22:26:57.420Z,1.63
2022-09-17T22:29:26.613Z,2.90
2022-09-17T22:31:53.833Z,1.47
2022-09-17T22:34:22.946Z,1.37
2022-09-17T22:36:50.371Z,1.80
2022-09-17T22:39:19.995Z,2.50
2022-09-17T22:41:47.532Z,1.37
2022-09-17T22:44:17.907Z,1.80
2022-09-17T22:46:47.079Z,1.63
2022-09-17T22:49:15.142Z,1.70
2022-09-17T22:51:43.402Z,1.47
2022-09-17T22:54:15.803Z,0.87
2022-09-17T22:56:43.539Z,1.53
2022-09-17T22:59:11.096Z,1.23
2022-09-17T23:01:39.767Z,1.30
2022-09-17T23:04:06.944Z,1.70
2022-09-17T23:06:38.195Z,1.03
2022-09-17T23:09:06.067Z,1.30
2022-09-17T23:11:35.192Z,1.83
2022-09-17T23:14:07.200Z,1.30
2022-09-17T23:16:48.226Z,1.13
2022-09-17T23:19:18.033Z,1.87
2022-09-17T23:21:45.531Z,1.30
2022-09-17T23:24:21.755Z,1.47
2022-09-17T23:26:49.582Z,1.57
2022-09-17T23:29:32.977Z,1.13
2022-09-17T23:32:03.233Z,1.60
2022-09-17T23:34:32.404Z,1.47
2022-09-17T23:36:59.502Z,1.37
2022-09-17T23:39:26.966Z,2.00
2022-09-17T23:41:54.372Z,1.50
2022-09-17T23:44:23.432Z,1.40
2022-09-17T23:46:50.456Z,1.33
2022-09-17T23:49:20.214Z,1.90
2022-09-17T23:51:47.196Z,1.27
2022-09-17T23:54:15.359Z,1.53
2022-09-17T23:56:42.509Z,1.70
2022-09-17T23:59:10.685Z,1.20
